Time;durP1;ratioP1;P1;durP2;ratioP2;P2;SDS_P1;SDS_P2;PMS_P1;PMS_P2;Temp;Humidity;BMP_temperature;BMP_pressure;BME280_temperature;BME280_humidity;BME280_pressure;Samples;Min_cycle;Max_cycle;Signal;HPM_P1;HPM_P2
2022/05/30 00:01:33;;;;;;;43.70;22.65;;;;;;;;;;6273784;22;20000;-85
2022/05/30 00:03:59;;;;;;;45.58;22.60;;;;;;;;;;6275487;22;20079;-85
2022/05/30 00:06:25;;;;;;;42.85;22.35;;;;;;;;;;6275437;22;20003;-86
2022/05/30 00:08:51;;;;;;;42.95;23.30;;;;;;;;;;6278430;22;20073;-87
2022/05/30 00:11:17;;;;;;;46.22;25.33;;;;;;;;;;6252064;22;19999;-87
2022/05/30 00:13:43;;;;;;;50.55;25.15;;;;;;;;;;6275365;22;20004;-86
2022/05/30 00:16:17;;;;;;;44.33;23.55;;;;;;;;;;6248325;22;19995;-87
2022/05/30 00:18:43;;;;;;;43.80;24.85;;;;;;;;;;6275218;22;20069;-86
2022/05/30 00:21:09;;;;;;;49.25;26.00;;;;;;;;;;6275207;22;20007;-86
2022/05/30 00:23:34;;;;;;;46.72;25.40;;;;;;;;;;6275081;22;20061;-85
2022/05/30 00:26:00;;;;;;;49.30;24.92;;;;;;;;;;6248450;22;20067;-86
2022/05/30 00:28:25;;;;;;;42.08;23.55;;;;;;;;;;6275094;22;20007;-86
2022/05/30 00:30:51;;;;;;;41.03;21.60;;;;;;;;;;6249482;22;20312;-86
2022/05/30 00:33:17;;;;;;;40.97;22.70;;;;;;;;;;6279342;22;20007;-87
2022/05/30 00:35:43;;;;;;;42.28;21.95;;;;;;;;;;6223016;22;20370;-87
2022/05/30 00:38:08;;;;;;;35.53;20.38;;;;;;;;;;6248283;22;20003;-87
2022/05/30 00:40:34;;;;;;;40.38;20.95;;;;;;;;;;6274725;22;20012;-86
2022/05/30 00:43:22;;;;;;;42.78;19.50;;;;;;;;;;6274890;22;20083;-86
2022/05/30 00:45:48;;;;;;;32.33;19.08;;;;;;;;;;6254858;22;20004;-86
2022/05/30 00:48:14;;;;;;;43.70;20.48;;;;;;;;;;6247934;22;20003;-85
2022/05/30 00:50:39;;;;;;;35.58;19.38;;;;;;;;;;6248006;22;20346;-86
2022/05/30 00:53:05;;;;;;;41.55;19.05;;;;;;;;;;6248022;22;20010;-86
2022/05/30 00:55:30;;;;;;;36.30;19.52;;;;;;;;;;6280539;22;20032;-86
2022/05/30 00:57:56;;;;;;;43.75;19.02;;;;;;;;;;6248009;22;20003;-87
2022/05/30 01:00:25;;;;;;;40.15;18.83;;;;;;;;;;6274972;22;20004;-86
2022/05/30 01:08:19;;;;;;;32.20;17.80;;;;;;;;;;6251783;22;20015;-87
2022/05/30 01:10:44;;;;;;;33.03;18.20;;;;;;;;;;6249345;22;20004;-86
2022/05/30 01:13:10;;;;;;;32.00;18.02;;;;;;;;;;6277093;22;20004;-86
2022/05/30 01:15:36;;;;;;;33.20;19.15;;;;;;;;;;6249764;22;20003;-86
2022/05/30 01:18:07;;;;;;;36.35;19.10;;;;;;;;;;6257676;22;20008;-86
2022/05/30 01:20:44;;;;;;;34.33;18.90;;;;;;;;;;6247777;22;20000;-87
2022/05/30 01:23:32;;;;;;;31.40;18.83;;;;;;;;;;6274527;22;20000;-85
2022/05/30 01:26:25;;;;;;;31.45;18.23;;;;;;;;;;6292191;22;20393;-86
2022/05/30 01:29:01;;;;;;;35.97;19.15;;;;;;;;;;6270648;22;20004;-86
2022/05/30 01:31:27;;;;;;;35.40;19.20;;;;;;;;;;6296792;22;20022;-86
2022/05/30 01:33:53;;;;;;;38.38;19.33;;;;;;;;;;6297680;22;20078;-87
2022/05/30 01:36:26;;;;;;;39.88;20.45;;;;;;;;;;6247690;22;20006;-86
2022/05/30 01:38:52;;;;;;;41.63;21.13;;;;;;;;;;6277847;22;20007;-82
2022/05/30 01:41:17;;;;;;;43.38;21.23;;;;;;;;;;6296151;22;20003;-85
2022/05/30 01:43:43;;;;;;;40.08;21.13;;;;;;;;;;6304544;22;20030;-86
2022/05/30 01:46:10;;;;;;;42.85;21.38;;;;;;;;;;6304393;22;19996;-85
2022/05/30 01:48:35;;;;;;;49.28;21.52;;;;;;;;;;6263570;22;20007;-86
2022/05/30 01:51:01;;;;;;;41.78;20.17;;;;;;;;;;6274611;22;20371;-85
2022/05/30 01:53:27;;;;;;;36.55;20.90;;;;;;;;;;6274379;22;20003;-86
2022/05/30 01:55:53;;;;;;;34.58;19.17;;;;;;;;;;6223332;22;20054;-87
2022/05/30 01:58:18;;;;;;;35.92;19.13;;;;;;;;;;6274591;22;19992;-86
2022/05/30 02:00:44;;;;;;;31.00;17.50;;;;;;;;;;6256665;22;20018;-85
2022/05/30 02:03:09;;;;;;;35.15;18.50;;;;;;;;;;6275677;22;20332;-86
2022/05/30 02:05:35;;;;;;;34.78;19.67;;;;;;;;;;6274608;22;20000;-86
2022/05/30 02:08:01;;;;;;;39.70;19.67;;;;;;;;;;6274273;22;20007;-86
2022/05/30 02:10:29;;;;;;;36.72;19.27;;;;;;;;;;6270686;22;20070;-86
2022/05/30 02:12:54;;;;;;;34.45;18.65;;;;;;;;;;6274639;22;20023;-85
2022/05/30 02:15:20;;;;;;;35.38;18.98;;;;;;;;;;6274706;22;20003;-85
2022/05/30 02:17:45;;;;;;;36.30;19.35;;;;;;;;;;6273454;22;20007;-86
2022/05/30 02:20:11;;;;;;;39.88;17.48;;;;;;;;;;6274334;22;20075;-85
2022/05/30 02:22:36;;;;;;;36.10;17.90;;;;;;;;;;6274861;22;20000;-86
2022/05/30 02:25:02;;;;;;;28.23;14.88;;;;;;;;;;6287120;22;20089;-86
2022/05/30 02:27:27;;;;;;;20.63;12.45;;;;;;;;;;6250699;22;20355;-87
2022/05/30 02:29:53;;;;;;;21.70;11.63;;;;;;;;;;6274733;22;20395;-87
2022/05/30 02:32:18;;;;;;;29.00;13.18;;;;;;;;;;6276151;22;19999;-84
2022/05/30 02:37:28;;;;;;;21.00;12.35;;;;;;;;;;6276170;22;20398;-86
2022/05/30 02:39:53;;;;;;;20.00;12.02;;;;;;;;;;6274812;22;20008;-87
2022/05/30 02:42:19;;;;;;;24.60;11.75;;;;;;;;;;6276190;22;20088;-86
2022/05/30 02:44:44;;;;;;;18.33;12.15;;;;;;;;;;6276279;22;20054;-85
2022/05/30 02:47:10;;;;;;;20.90;12.07;;;;;;;;;;6279744;22;20031;-87
2022/05/30 02:49:35;;;;;;;16.02;11.40;;;;;;;;;;6274312;22;20014;-86
2022/05/30 02:52:01;;;;;;;20.73;12.73;;;;;;;;;;6276158;22;20003;-87
2022/05/30 02:54:27;;;;;;;19.00;12.15;;;;;;;;;;6276226;22;20002;-87
2022/05/30 02:56:53;;;;;;;21.13;12.07;;;;;;;;;;6276113;22;20078;-86
2022/05/30 02:59:19;;;;;;;16.20;10.75;;;;;;;;;;6249930;22;20000;-86
2022/05/30 03:01:44;;;;;;;21.75;11.73;;;;;;;;;;6274935;22;20035;-88
2022/05/30 03:04:10;;;;;;;18.20;11.10;;;;;;;;;;6276008;22;20003;-86
2022/05/30 03:06:36;;;;;;;16.00;10.65;;;;;;;;;;6275250;22;20007;-88
2022/05/30 03:09:02;;;;;;;15.07;9.73;;;;;;;;;;6278067;22;20336;-86
2022/05/30 03:11:27;;;;;;;19.48;9.35;;;;;;;;;;6249646;22;20026;-87
2022/05/30 03:13:53;;;;;;;20.50;8.50;;;;;;;;;;6276133;22;20026;-87
2022/05/30 03:16:18;;;;;;;12.60;8.32;;;;;;;;;;6248866;22;20137;-87
2022/05/30 03:18:44;;;;;;;11.23;7.53;;;;;;;;;;6249067;22;20004;-85
2022/05/30 03:21:10;;;;;;;11.35;7.68;;;;;;;;;;6249053;22;20000;-86
2022/05/30 03:23:36;;;;;;;14.05;7.93;;;;;;;;;;6275906;22;20015;-86
2022/05/30 03:26:01;;;;;;;26.15;8.55;;;;;;;;;;6200106;22;20370;-87
2022/05/30 03:28:26;;;;;;;10.50;7.15;;;;;;;;;;6276334;22;19996;-86
2022/05/30 03:30:52;;;;;;;13.35;8.07;;;;;;;;;;6250448;22;20014;-87
2022/05/30 03:33:17;;;;;;;14.77;8.00;;;;;;;;;;6199967;22;19996;-87
2022/05/30 03:35:43;;;;;;;17.33;8.15;;;;;;;;;;6276655;22;20008;-86
2022/05/30 03:38:09;;;;;;;15.40;7.63;;;;;;;;;;6249845;22;19996;-86
2022/05/30 03:40:37;;;;;;;16.65;8.20;;;;;;;;;;6250011;22;20015;-86
2022/05/30 03:43:07;;;;;;;12.32;7.68;;;;;;;;;;6249425;22;19999;-84
2022/05/30 03:45:32;;;;;;;;;;;;;;;;;;6200972;22;20034;-87
2022/05/30 03:47:58;;;;;;;12.40;7.85;;;;;;;;;;6275809;22;19907;-87
2022/05/30 03:50:24;;;;;;;11.85;8.45;;;;;;;;;;6249378;22;20419;-85
2022/05/30 03:52:52;;;;;;;17.17;8.13;;;;;;;;;;6223968;22;20422;-87
2022/05/30 03:55:19;;;;;;;12.27;8.40;;;;;;;;;;6258231;22;20054;-87
2022/05/30 03:57:45;;;;;;;12.98;8.23;;;;;;;;;;6275908;22;20423;-87
2022/05/30 04:00:14;;;;;;;16.40;8.35;;;;;;;;;;6249332;22;20000;-87
2022/05/30 04:02:39;;;;;;;12.45;8.07;;;;;;;;;;6248592;22;20061;-86
2022/05/30 04:05:05;;;;;;;12.63;8.07;;;;;;;;;;6296881;22;19983;-86
2022/05/30 04:07:31;;;;;;;15.75;7.82;;;;;;;;;;6298440;22;19988;-85
2022/05/30 04:09:56;;;;;;;11.30;7.50;;;;;;;;;;6299194;22;19992;-86
2022/05/30 04:12:22;;;;;;;15.63;7.88;;;;;;;;;;6291264;22;20003;-88
2022/05/30 04:14:59;;;;;;;15.18;8.02;;;;;;;;;;6255365;22;20003;-83
2022/05/30 04:17:24;;;;;;;14.13;8.63;;;;;;;;;;6248614;22;20008;-82
2022/05/30 04:19:50;;;;;;;14.27;8.60;;;;;;;;;;6275178;22;20010;-83
2022/05/30 04:22:16;;;;;;;15.07;8.10;;;;;;;;;;6248239;22;20057;-84
2022/05/30 04:24:41;;;;;;;16.60;9.30;;;;;;;;;;6275278;22;20007;-83
2022/05/30 04:27:07;;;;;;;19.65;9.57;;;;;;;;;;6247921;22;20396;-82
2022/05/30 04:29:32;;;;;;;17.95;9.25;;;;;;;;;;6196858;22;20010;-84
2022/05/30 04:31:59;;;;;;;21.63;9.85;;;;;;;;;;6246718;22;19999;-84
2022/05/30 04:34:25;;;;;;;15.27;8.93;;;;;;;;;;6221309;22;20065;-83
2022/05/30 04:36:51;;;;;;;15.07;9.40;;;;;;;;;;6248310;22;20003;-83
2022/05/30 04:39:16;;;;;;;19.02;10.15;;;;;;;;;;6251849;22;20004;-81
2022/05/30 04:41:41;;;;;;;17.27;10.13;;;;;;;;;;6274962;22;20423;-84
2022/05/30 04:44:07;;;;;;;16.95;10.13;;;;;;;;;;6275332;22;19995;-82
2022/05/30 04:46:39;;;;;;;17.60;11.23;;;;;;;;;;6250507;22;20090;-84
2022/05/30 04:49:05;;;;;;;19.83;11.30;;;;;;;;;;6276953;22;20334;-82
2022/05/30 04:51:30;;;;;;;19.33;11.70;;;;;;;;;;6248927;22;20004;-84
2022/05/30 04:53:56;;;;;;;24.25;11.52;;;;;;;;;;6281968;22;19995;-83
2022/05/30 04:56:24;;;;;;;18.70;11.77;;;;;;;;;;6276366;22;20007;-83
2022/05/30 04:59:10;;;;;;;18.98;11.65;;;;;;;;;;6250471;22;20015;-86
2022/05/30 05:01:39;;;;;;;19.33;11.95;;;;;;;;;;6274858;22;20004;-84
2022/05/30 05:04:10;;;;;;;27.17;12.85;;;;;;;;;;6257556;22;19987;-85
2022/05/30 05:06:37;;;;;;;17.23;11.10;;;;;;;;;;6233667;22;20047;-83
2022/05/30 05:09:29;;;;;;;20.13;12.10;;;;;;;;;;6223530;22;20039;-84
2022/05/30 05:11:58;;;;;;;22.80;12.07;;;;;;;;;;6244891;22;20050;-85
2022/05/30 05:14:27;;;;;;;20.08;12.70;;;;;;;;;;6206309;22;20688;-84
2022/05/30 05:17:04;;;;;;;22.02;11.52;;;;;;;;;;6234843;22;19988;-82
2022/05/30 05:19:32;;;;;;;18.90;11.70;;;;;;;;;;6235838;22;20011;-83
2022/05/30 05:22:18;;;;;;;17.65;11.75;;;;;;;;;;6233316;22;20019;-84
2022/05/30 05:24:43;;;;;;;18.17;10.25;;;;;;;;;;6230427;22;20327;-84
2022/05/30 05:27:25;;;;;;;15.85;10.40;;;;;;;;;;6260104;22;19999;-84
2022/05/30 05:30:21;;;;;;;20.90;10.35;;;;;;;;;;6245283;22;20020;-87
2022/05/30 05:32:51;;;;;;;18.90;10.05;;;;;;;;;;6292156;22;20031;-85
2022/05/30 05:35:42;;;;;;;13.88;9.77;;;;;;;;;;6247138;22;20004;-82
2022/05/30 05:38:11;;;;;;;18.70;9.82;;;;;;;;;;6286899;22;20008;-84
2022/05/30 05:40:40;;;;;;;16.25;9.82;;;;;;;;;;6248709;22;20587;-82
2022/05/30 05:43:08;;;;;;;15.65;10.00;;;;;;;;;;6250680;22;20007;-83
2022/05/30 05:45:41;;;;;;;13.93;9.40;;;;;;;;;;6254060;22;20007;-82
2022/05/30 05:48:10;;;;;;;15.27;9.15;;;;;;;;;;6284881;22;20004;-83
2022/05/30 05:50:39;;;;;;;16.10;10.27;;;;;;;;;;6228200;22;20062;-80
2022/05/30 05:53:05;;;;;;;15.48;10.27;;;;;;;;;;6251382;22;20015;-80
2022/05/30 05:55:33;;;;;;;16.10;9.30;;;;;;;;;;6278509;22;20000;-88
2022/05/30 05:57:58;;;;;;;16.20;9.43;;;;;;;;;;6228517;22;20261;-85
2022/05/30 06:00:24;;;;;;;11.88;9.40;;;;;;;;;;6287140;22;20072;-82
2022/05/30 06:02:55;;;;;;;14.48;9.75;;;;;;;;;;6261257;22;20026;-87
2022/05/30 06:05:40;;;;;;;12.70;9.13;;;;;;;;;;6232786;22;20004;-83
2022/05/30 06:08:24;;;;;;;11.98;8.93;;;;;;;;;;6229576;22;20041;-89
2022/05/30 06:11:05;;;;;;;18.05;9.45;;;;;;;;;;6229180;23;20012;-85
2022/05/30 06:13:40;;;;;;;17.13;9.57;;;;;;;;;;6202558;23;20028;-88
2022/05/30 06:16:44;;;;;;;13.65;9.25;;;;;;;;;;6269806;22;20012;-85
2022/05/30 06:19:13;;;;;;;12.50;8.60;;;;;;;;;;6242028;23;20064;-84
2022/05/30 06:21:38;;;;;;;13.90;8.85;;;;;;;;;;6224971;23;20008;-82
2022/05/30 06:24:27;;;;;;;11.43;8.65;;;;;;;;;;6221427;23;20000;-85
2022/05/30 06:26:53;;;;;;;14.60;8.60;;;;;;;;;;6246398;23;20004;-81
2022/05/30 06:29:18;;;;;;;11.63;8.00;;;;;;;;;;6225720;23;20372;-85
2022/05/30 06:31:56;;;;;;;12.63;8.45;;;;;;;;;;6224069;23;20005;-85
2022/05/30 06:34:29;;;;;;;9.27;7.22;;;;;;;;;;6227671;23;20126;-88
2022/05/30 06:36:54;;;;;;;10.13;7.45;;;;;;;;;;6227999;23;20533;-84
2022/05/30 06:39:23;;;;;;;12.20;7.28;;;;;;;;;;6247283;23;20008;-84
2022/05/30 06:41:56;;;;;;;9.02;6.95;;;;;;;;;;6255073;23;20087;-83
2022/05/30 06:44:21;;;;;;;9.98;7.30;;;;;;;;;;6201239;23;20027;-86
2022/05/30 06:46:47;;;;;;;9.15;7.20;;;;;;;;;;6222920;23;20000;-86
2022/05/30 06:49:12;;;;;;;14.23;7.78;;;;;;;;;;6215520;23;20012;-87
2022/05/30 06:51:38;;;;;;;10.18;7.28;;;;;;;;;;6221837;23;20023;-88
2022/05/30 06:54:04;;;;;;;8.98;7.10;;;;;;;;;;6196086;23;20008;-88
2022/05/30 06:56:35;;;;;;;10.13;6.30;;;;;;;;;;6247769;23;20397;-89
2022/05/30 06:59:01;;;;;;;14.00;6.60;;;;;;;;;;6226204;23;20015;-84
2022/05/30 07:01:35;;;;;;;11.35;7.47;;;;;;;;;;6257876;23;20027;-84
2022/05/30 07:04:01;;;;;;;14.70;6.88;;;;;;;;;;6244955;23;20004;-85
2022/05/30 07:06:31;;;;;;;13.48;7.47;;;;;;;;;;6247340;23;20007;-89
2022/05/30 07:08:57;;;;;;;11.35;7.57;;;;;;;;;;6230362;22;20008;-87
2022/05/30 07:11:23;;;;;;;10.30;7.32;;;;;;;;;;6277947;22;20006;-88
2022/05/30 07:13:48;;;;;;;9.65;7.32;;;;;;;;;;6283227;22;20011;-87
2022/05/30 07:16:14;;;;;;;15.82;8.15;;;;;;;;;;6281749;22;20010;-84
2022/05/30 07:18:39;;;;;;;15.35;8.68;;;;;;;;;;6277739;22;20014;-84
2022/05/30 07:21:06;;;;;;;12.18;8.57;;;;;;;;;;6277442;22;20000;-84
2022/05/30 07:23:33;;;;;;;10.63;8.35;;;;;;;;;;6284301;22;20000;-86
2022/05/30 07:26:00;;;;;;;12.60;8.43;;;;;;;;;;6251395;22;20000;-85
2022/05/30 07:28:28;;;;;;;13.35;7.22;;;;;;;;;;6251709;22;20082;-84
2022/05/30 07:30:55;;;;;;;7.82;6.97;;;;;;;;;;6276784;22;20003;-88
2022/05/30 07:33:21;;;;;;;8.57;6.82;;;;;;;;;;6250795;22;20011;-83
2022/05/30 07:35:49;;;;;;;9.48;7.10;;;;;;;;;;6255247;22;20334;-86
2022/05/30 07:38:15;;;;;;;10.85;6.57;;;;;;;;;;6276949;22;20023;-83
2022/05/30 07:40:41;;;;;;;8.90;6.85;;;;;;;;;;6273024;22;20000;-81
2022/05/30 07:43:06;;;;;;;14.60;8.00;;;;;;;;;;6269498;22;20378;-81
2022/05/30 07:45:31;;;;;;;11.27;6.97;;;;;;;;;;6279258;22;20003;-86
2022/05/30 07:47:58;;;;;;;10.93;6.85;;;;;;;;;;6269669;22;20427;-82
2022/05/30 07:50:24;;;;;;;19.08;7.20;;;;;;;;;;6270923;22;20011;-83
2022/05/30 07:52:49;;;;;;;12.57;6.80;;;;;;;;;;6270977;22;20006;-83
2022/05/30 07:55:15;;;;;;;13.57;7.18;;;;;;;;;;6271722;22;20080;-84
2022/05/30 07:57:53;;;;;;;16.63;7.82;;;;;;;;;;6244512;22;20061;-81
2022/05/30 08:00:24;;;;;;;12.30;8.02;;;;;;;;;;6272001;22;20008;-84
2022/05/30 08:02:50;;;;;;;12.93;7.57;;;;;;;;;;6269504;22;20007;-82
2022/05/30 08:05:17;;;;;;;8.95;6.85;;;;;;;;;;6266009;22;20478;-86
2022/05/30 08:07:44;;;;;;;13.07;7.45;;;;;;;;;;6278252;22;20000;-83
2022/05/30 08:10:09;;;;;;;13.15;8.02;;;;;;;;;;6269220;22;20020;-79
2022/05/30 08:12:35;;;;;;;12.05;7.15;;;;;;;;;;6243642;22;19996;-84
2022/05/30 08:15:00;;;;;;;10.73;6.45;;;;;;;;;;6274765;22;20256;-84
2022/05/30 08:17:26;;;;;;;11.15;6.47;;;;;;;;;;6248747;22;20071;-87
2022/05/30 08:19:51;;;;;;;14.20;6.30;;;;;;;;;;6247977;22;20010;-85
2022/05/30 08:22:18;;;;;;;7.25;6.15;;;;;;;;;;6246455;22;20615;-86
2022/05/30 08:24:47;;;;;;;8.05;5.10;;;;;;;;;;6246611;22;20003;-86
2022/05/30 08:27:12;;;;;;;10.55;6.00;;;;;;;;;;6246886;22;19996;-85
2022/05/30 08:29:38;;;;;;;8.05;6.07;;;;;;;;;;6256888;22;20045;-87
2022/05/30 08:32:04;;;;;;;10.57;5.43;;;;;;;;;;6278441;22;20473;-87
2022/05/30 08:34:29;;;;;;;7.25;5.57;;;;;;;;;;6226666;22;20000;-85
2022/05/30 08:36:55;;;;;;;8.48;5.55;;;;;;;;;;6276842;22;20010;-86
2022/05/30 08:42:07;;;;;;;7.57;5.20;;;;;;;;;;6287044;22;20072;-87
2022/05/30 08:44:32;;;;;;;11.40;5.50;;;;;;;;;;6226291;22;20458;-89
2022/05/30 08:47:01;;;;;;;8.93;5.57;;;;;;;;;;6248351;22;20047;-86
2022/05/30 08:49:45;;;;;;;9.45;5.60;;;;;;;;;;6251885;22;20258;-88
2022/05/30 08:52:39;;;;;;;8.32;6.15;;;;;;;;;;6254849;22;20018;-85
2022/05/30 08:55:14;;;;;;;6.97;5.63;;;;;;;;;;6277448;22;20004;-85
2022/05/30 08:57:55;;;;;;;13.75;6.55;;;;;;;;;;6247253;22;20606;-83
2022/05/30 09:01:00;;;;;;;9.90;6.25;;;;;;;;;;6246480;22;20015;-85
2022/05/30 09:03:42;;;;;;;10.25;6.25;;;;;;;;;;6259427;22;20000;-90
2022/05/30 09:06:22;;;;;;;7.88;6.55;;;;;;;;;;6266995;22;20425;-88
2022/05/30 09:09:20;;;;;;;8.48;5.05;;;;;;;;;;6255975;22;20137;-89
2022/05/30 09:11:55;;;;;;;12.82;5.15;;;;;;;;;;6273359;22;20000;-87
2022/05/30 09:14:29;;;;;;;7.07;5.20;;;;;;;;;;6287899;22;20003;-87
2022/05/30 09:17:03;;;;;;;6.85;5.25;;;;;;;;;;6280067;22;19996;-88
2022/05/30 09:19:31;;;;;;;5.82;4.90;;;;;;;;;;6282715;22;20011;-86
2022/05/30 09:22:01;;;;;;;10.52;5.28;;;;;;;;;;6275165;22;19996;-88
2022/05/30 09:24:28;;;;;;;5.60;4.72;;;;;;;;;;6276479;22;20010;-87
2022/05/30 09:26:54;;;;;;;10.57;4.75;;;;;;;;;;6275374;22;19999;-84
2022/05/30 09:29:29;;;;;;;8.02;4.95;;;;;;;;;;6273557;22;20010;-90
2022/05/30 09:32:08;;;;;;;5.72;4.80;;;;;;;;;;6280385;22;20000;-85
2022/05/30 09:34:45;;;;;;;11.60;5.15;;;;;;;;;;6281244;22;20426;-86
2022/05/30 09:37:53;;;;;;;7.38;4.63;;;;;;;;;;6264653;22;20026;-85
2022/05/30 09:40:19;;;;;;;6.90;4.80;;;;;;;;;;6284846;22;20015;-81
2022/05/30 09:42:51;;;;;;;6.07;4.53;;;;;;;;;;6254600;22;20003;-88
2022/05/30 09:45:27;;;;;;;6.30;4.82;;;;;;;;;;6242437;22;20053;-88
2022/05/30 09:48:31;;;;;;;8.38;4.70;;;;;;;;;;6273854;22;20000;-90
2022/05/30 09:50:57;;;;;;;6.15;4.57;;;;;;;;;;6302822;22;20015;-89
2022/05/30 09:53:49;;;;;;;6.07;4.40;;;;;;;;;;6298844;22;19992;-85
2022/05/30 09:56:16;;;;;;;8.23;5.25;;;;;;;;;;6275822;22;20019;-88
2022/05/30 09:58:47;;;;;;;5.35;4.78;;;;;;;;;;6289083;22;20074;-88
2022/05/30 10:01:13;;;;;;;10.82;4.50;;;;;;;;;;6300485;22;20028;-88
2022/05/30 10:03:40;;;;;;;4.70;4.30;;;;;;;;;;6268159;22;20022;-91
2022/05/30 10:06:21;;;;;;;5.65;4.25;;;;;;;;;;6265629;22;20006;-85
2022/05/30 10:08:48;;;;;;;9.95;4.55;;;;;;;;;;6263843;22;20015;-90
2022/05/30 10:11:40;;;;;;;4.63;4.07;;;;;;;;;;6286447;22;20016;-87
2022/05/30 10:14:24;;;;;;;5.95;4.38;;;;;;;;;;6267561;22;20023;-91
2022/05/30 10:16:53;;;;;;;7.38;4.45;;;;;;;;;;6239738;22;20000;-89
2022/05/30 10:19:39;;;;;;;7.25;4.30;;;;;;;;;;6260612;22;20069;-89
2022/05/30 10:28:39;;;;;;;7.03;4.45;;;;;;;;;;6290579;22;20014;-89
2022/05/30 10:31:27;;;;;;;10.27;3.97;;;;;;;;;;6264068;22;20027;-88
2022/05/30 10:34:06;;;;;;;6.80;4.55;;;;;;;;;;6287761;22;20011;-86
2022/05/30 10:36:40;;;;;;;6.53;4.45;;;;;;;;;;6281457;22;20004;-87
2022/05/30 10:39:36;;;;;;;10.23;5.22;;;;;;;;;;6277846;22;20003;-83
2022/05/30 10:42:06;;;;;;;6.75;4.65;;;;;;;;;;6272041;22;20107;-82
2022/05/30 10:44:35;;;;;;;9.48;4.50;;;;;;;;;;6244945;22;20004;-83
2022/05/30 10:47:06;;;;;;;5.15;4.65;;;;;;;;;;6231917;22;20070;-80
2022/05/30 10:49:34;;;;;;;7.10;4.13;;;;;;;;;;6225799;22;20078;-81
2022/05/30 10:52:29;;;;;;;6.57;4.78;;;;;;;;;;6273996;22;20003;-83
2022/05/30 10:54:57;;;;;;;8.07;4.68;;;;;;;;;;6274246;22;19999;-83
2022/05/30 10:57:56;;;;;;;8.10;4.80;;;;;;;;;;6222223;22;20000;-83
2022/05/30 11:00:24;;;;;;;8.70;4.35;;;;;;;;;;6166955;22;20003;-84
2022/05/30 11:03:17;;;;;;;6.90;4.72;;;;;;;;;;6222342;22;19999;-82
2022/05/30 11:05:53;;;;;;;11.32;4.60;;;;;;;;;;6279057;22;20069;-84
2022/05/30 11:08:21;;;;;;;5.72;4.45;;;;;;;;;;6252400;22;20010;-82
2022/05/30 11:10:58;;;;;;;11.13;4.90;;;;;;;;;;6274576;22;20004;-82
2022/05/30 11:13:42;;;;;;;7.78;4.57;;;;;;;;;;6248685;22;20050;-83
2022/05/30 11:16:11;;;;;;;9.85;4.68;;;;;;;;;;6277269;22;20390;-82
2022/05/30 11:18:54;;;;;;;7.90;5.10;;;;;;;;;;6249428;22;20011;-83
2022/05/30 11:21:34;;;;;;;7.60;4.95;;;;;;;;;;6255949;22;20031;-83
2022/05/30 11:24:03;;;;;;;9.63;4.75;;;;;;;;;;6228617;22;20042;-86
2022/05/30 11:26:57;;;;;;;5.88;4.30;;;;;;;;;;6255612;22;20003;-83
2022/05/30 11:30:00;;;;;;;8.90;5.20;;;;;;;;;;6276942;22;20015;-87
2022/05/30 11:32:32;;;;;;;8.52;5.78;;;;;;;;;;6284818;22;20004;-84
2022/05/30 11:35:22;;;;;;;12.27;6.05;;;;;;;;;;6276402;22;20336;-84
2022/05/30 11:38:06;;;;;;;17.63;6.55;;;;;;;;;;6273211;22;20004;-81
2022/05/30 11:40:46;;;;;;;13.05;6.20;;;;;;;;;;6273488;22;20019;-82
2022/05/30 11:43:17;;;;;;;10.07;6.25;;;;;;;;;;6273286;22;20069;-81
2022/05/30 11:46:01;;;;;;;18.65;8.13;;;;;;;;;;6272857;22;20488;-81
2022/05/30 11:48:53;;;;;;;9.13;5.30;;;;;;;;;;6274545;22;20004;-82
2022/05/30 11:51:21;;;;;;;18.48;6.00;;;;;;;;;;6274790;22;20000;-81
2022/05/30 11:54:04;;;;;;;8.63;5.82;;;;;;;;;;6282677;22;20419;-79
2022/05/30 11:56:42;;;;;;;9.55;5.45;;;;;;;;;;6276200;22;20030;-81
2022/05/30 11:59:30;;;;;;;7.20;5.82;;;;;;;;;;6274867;22;20019;-81
2022/05/30 12:01:56;;;;;;;9.65;6.93;;;;;;;;;;6298581;22;20019;-81
2022/05/30 12:04:53;;;;;;;13.52;9.63;;;;;;;;;;6261224;22;20022;-79
2022/05/30 12:07:25;;;;;;;13.15;5.57;;;;;;;;;;6289699;22;19992;-80
2022/05/30 12:10:13;;;;;;;10.48;6.32;;;;;;;;;;6285970;22;20051;-80
2022/05/30 12:12:52;;;;;;;9.93;5.70;;;;;;;;;;6279229;22;20075;-81
2022/05/30 12:15:39;;;;;;;9.48;5.53;;;;;;;;;;6253187;22;20046;-83
2022/05/30 12:24:14;;;;;;;12.02;6.00;;;;;;;;;;6275110;22;20162;-81
2022/05/30 12:26:56;;;;;;;8.85;6.20;;;;;;;;;;6274487;22;20000;-78
2022/05/30 12:29:37;;;;;;;10.30;5.53;;;;;;;;;;6247558;22;20713;-81
2022/05/30 12:32:17;;;;;;;11.15;5.78;;;;;;;;;;6273076;22;19999;-79
2022/05/30 12:34:58;;;;;;;9.93;5.93;;;;;;;;;;6271738;22;20004;-81
2022/05/30 12:37:43;;;;;;;9.93;5.47;;;;;;;;;;6274593;22;20063;-80
2022/05/30 12:40:26;;;;;;;10.63;5.97;;;;;;;;;;6274533;22;20015;-79
2022/05/30 12:43:32;;;;;;;30.02;17.65;;;;;;;;;;6247705;22;20007;-83
2022/05/30 12:45:58;;;;;;;15.95;5.55;;;;;;;;;;6201922;22;20011;-82
2022/05/30 12:48:30;;;;;;;9.20;5.88;;;;;;;;;;6273080;22;20330;-79
2022/05/30 12:50:55;;;;;;;14.57;5.82;;;;;;;;;;6272522;22;20007;-80
2022/05/30 12:53:22;;;;;;;9.13;5.57;;;;;;;;;;6273126;22;20003;-80
2022/05/30 12:55:50;;;;;;;10.07;5.63;;;;;;;;;;6248026;22;20091;-80
2022/05/30 12:58:20;;;;;;;9.93;5.50;;;;;;;;;;6247343;22;20007;-79
2022/05/30 13:00:50;;;;;;;6.80;5.30;;;;;;;;;;6248813;22;20008;-83
2022/05/30 13:03:28;;;;;;;11.82;5.72;;;;;;;;;;6247615;22;20003;-80
2022/05/30 13:06:17;;;;;;;8.60;5.38;;;;;;;;;;6274650;22;19996;-80
2022/05/30 13:09:01;;;;;;;;;;;;;;;;;;6275637;22;20023;-81
2022/05/30 13:11:33;;;;;;;11.07;5.43;;;;;;;;;;6274829;22;19978;-80
2022/05/30 13:14:32;;;;;;;9.50;5.53;;;;;;;;;;6274801;22;20030;-81
2022/05/30 13:17:08;;;;;;;15.68;5.93;;;;;;;;;;6248050;22;20003;-80
2022/05/30 13:19:40;;;;;;;9.10;5.43;;;;;;;;;;6274593;22;20010;-82
2022/05/30 13:22:06;;;;;;;10.57;6.32;;;;;;;;;;6250361;22;20419;-80
2022/05/30 13:24:34;;;;;;;9.98;5.85;;;;;;;;;;6277576;22;20011;-81
2022/05/30 13:27:00;;;;;;;8.63;5.97;;;;;;;;;;6274818;22;20319;-81
2022/05/30 13:29:30;;;;;;;8.98;5.93;;;;;;;;;;6274383;22;20005;-81
2022/05/30 13:31:55;;;;;;;9.32;6.32;;;;;;;;;;6248182;22;20098;-80
2022/05/30 13:34:26;;;;;;;6.55;5.78;;;;;;;;;;6247835;22;19996;-81
2022/05/30 13:36:52;;;;;;;15.00;6.15;;;;;;;;;;6248458;22;20079;-81
2022/05/30 13:39:18;;;;;;;10.73;5.97;;;;;;;;;;6222634;22;20023;-80
2022/05/30 13:41:43;;;;;;;11.65;5.10;;;;;;;;;;6247315;22;20004;-81
2022/05/30 13:44:10;;;;;;;10.68;5.47;;;;;;;;;;6248733;22;19996;-81
2022/05/30 13:46:41;;;;;;;12.50;6.40;;;;;;;;;;6253155;22;20012;-81
2022/05/30 13:49:07;;;;;;;14.77;6.70;;;;;;;;;;6247895;22;20338;-80
2022/05/30 13:51:37;;;;;;;10.48;6.63;;;;;;;;;;6247861;22;20030;-81
2022/05/30 13:54:02;;;;;;;;;;;;;;;;;;6248071;22;20004;-81
2022/05/30 13:56:36;;;;;;;10.00;5.95;;;;;;;;;;6222079;22;20564;-81
2022/05/30 13:59:19;;;;;;;13.32;6.07;;;;;;;;;;6274460;22;20004;-81
2022/05/30 14:01:45;;;;;;;11.18;6.60;;;;;;;;;;6225859;22;20004;-80
2022/05/30 14:04:40;;;;;;;10.85;6.07;;;;;;;;;;6247798;22;19995;-81
2022/05/30 14:07:17;;;;;;;10.63;6.50;;;;;;;;;;6195119;22;20366;-81
2022/05/30 14:09:42;;;;;;;9.00;6.40;;;;;;;;;;6276603;22;20014;-79
2022/05/30 14:12:08;;;;;;;14.23;6.40;;;;;;;;;;6247186;22;20007;-81
2022/05/30 14:14:37;;;;;;;8.65;6.40;;;;;;;;;;6248558;22;19999;-81
2022/05/30 14:17:03;;;;;;;11.07;6.20;;;;;;;;;;6248274;22;20011;-82
2022/05/30 14:19:37;;;;;;;13.43;6.57;;;;;;;;;;6275287;22;20004;-81
2022/05/30 14:22:20;;;;;;;12.80;6.55;;;;;;;;;;6249627;22;20011;-80
2022/05/30 14:25:00;;;;;;;9.73;6.47;;;;;;;;;;6235629;22;20007;-81
2022/05/30 14:27:30;;;;;;;9.95;6.35;;;;;;;;;;6275052;22;20004;-81
2022/05/30 14:30:02;;;;;;;9.82;6.45;;;;;;;;;;6280461;22;20491;-82
2022/05/30 14:32:32;;;;;;;15.27;6.85;;;;;;;;;;6278894;22;20367;-80
2022/05/30 14:35:03;;;;;;;12.13;6.65;;;;;;;;;;6277119;22;20027;-79
2022/05/30 14:37:31;;;;;;;9.90;6.55;;;;;;;;;;6277056;22;20057;-81
2022/05/30 14:40:00;;;;;;;12.50;6.38;;;;;;;;;;6274257;22;20035;-82
2022/05/30 14:42:33;;;;;;;14.20;6.70;;;;;;;;;;6274946;22;20004;-80
2022/05/30 14:45:11;;;;;;;20.48;7.55;;;;;;;;;;6276086;22;19996;-82
2022/05/30 14:47:38;;;;;;;7.72;6.07;;;;;;;;;;6276074;22;20058;-83
2022/05/30 14:50:07;;;;;;;13.10;6.93;;;;;;;;;;6249313;22;20057;-80
2022/05/30 14:52:35;;;;;;;10.30;6.78;;;;;;;;;;6277175;22;20072;-80
2022/05/30 14:55:32;;;;;;;8.70;6.38;;;;;;;;;;6250387;22;20011;-81
2022/05/30 14:58:15;;;;;;;9.43;6.57;;;;;;;;;;6275824;22;20038;-81
2022/05/30 15:00:52;;;;;;;24.63;8.27;;;;;;;;;;6274304;22;20029;-81
2022/05/30 15:06:02;;;;;;;9.55;6.63;;;;;;;;;;6275947;22;20057;-80
2022/05/30 15:08:29;;;;;;;18.48;6.57;;;;;;;;;;6274293;22;20335;-81
2022/05/30 15:10:54;;;;;;;12.45;6.93;;;;;;;;;;6248848;22;20061;-82
2022/05/30 15:13:20;;;;;;;13.75;6.93;;;;;;;;;;6275779;22;20075;-82
2022/05/30 15:15:45;;;;;;;7.47;6.45;;;;;;;;;;6280286;22;20011;-84
2022/05/30 15:18:13;;;;;;;11.13;7.03;;;;;;;;;;6276432;22;20000;-80
2022/05/30 15:20:39;;;;;;;10.48;7.18;;;;;;;;;;6274488;22;20008;-84
2022/05/30 15:23:04;;;;;;;14.38;6.57;;;;;;;;;;6274248;22;20060;-81